Flight Briefing for CPX104

Departure Arrival
Ted Stevens Anchorage International Airport (PANC)
Click to view FAA NOTAMS
Seattle-Tacoma International Airport (KSEA)
Click to view FAA NOTAMS
Departure Time Arrival Time
N/A N/A
Aircraft Distance
B747-400BCF 1257nm
Departure METAR Arrival METAR
PANC 250253Z 33005KT 10SM FEW050 SCT060 SCT120 16/05 A3018 RMK AO2 SLP222 T01610050 58013 KSEA 250253Z 25008KT 10SM BKN050 BKN080 13/07 A2995 RMK AO2 SLP149 T01330072 52011
Suggested Route
NOEND4 NOEND LAIRE BKA DUGGS YYJ MARNR7


View recent IFR Routes data
Notes



Charts and Procedures

Charts for PANC
No chart available
Charts for KSEA
No chart available

Windy.com Weather Map